e-Mail: Password: Lost your password? Click here. - Register a new user

c h a v e z j u a r e z . c o m

Weather - Tiempo - Wetter - Temps

METAR DATA MMMX (Mexico City)

Mexico City / Licenci, Mexico (MMMX) 19-26N 099-06W
Aug 19, 2018 - 02:51 AM EDT / 2018.08.19 0651 UTC
Wind: from the S (180 degrees) at 7 MPH (6 KT):0
Visibility: 9 mile(s):0
Sky conditions: overcast
Weather: light drizzle
Temperature: 59 F (15 C)
Dew Point: 55 F (13 C)
Relative Humidity: 87%
Pressure (altimeter): 30.36 in. Hg (1028 hPa)
ob: MMMX 190651Z 18006KT 9SM -DZ SCT020 OVC080 15/13 A3036 NOSIG RMK 8/57/ HZY
cycle: 7

Mexico City

St. Prex




Current weather alarms for Switzerland


www.wetteralarm.ch